Time;durP1;ratioP1;P1;durP2;ratioP2;P2;SDS_P1;SDS_P2;PMS_P1;PMS_P2;Temp;Humidity;BMP_temperature;BMP_pressure;BME280_temperature;BME280_humidity;BME280_pressure;Samples;Min_cycle;Max_cycle;Signal;HPM_P1;HPM_P2
2021/07/17 00:00:22;;;;;;;27.40;14.63;;;;;;;20.30;68.65;101084.25;5081126;28;20902;-82
2021/07/17 00:02:51;;;;;;;25.73;14.50;;;;;;;20.31;68.47;101083.22;5078432;28;20451;-80
2021/07/17 00:05:18;;;;;;;33.30;14.77;;;;;;;20.34;68.58;101082.00;5081975;28;20518;-82
2021/07/17 00:07:46;;;;;;;32.13;15.63;;;;;;;20.21;68.66;101079.09;5080363;28;20486;-80
2021/07/17 00:10:13;;;;;;;23.93;13.63;;;;;;;20.06;68.87;101076.34;5080714;28;20471;-82
2021/07/17 00:12:40;;;;;;;26.50;14.10;;;;;;;20.09;68.90;101082.22;5082279;28;20499;-81
2021/07/17 00:15:08;;;;;;;21.33;14.60;;;;;;;19.98;69.41;101089.97;5081128;28;20500;-82
2021/07/17 00:17:34;;;;;;;25.93;14.43;;;;;;;19.83;69.50;101087.22;5080861;28;20514;-82
2021/07/17 00:20:06;;;;;;;25.20;14.10;;;;;;;19.75;70.02;101088.09;5081687;28;20535;-82
2021/07/17 00:22:33;;;;;;;22.77;13.87;;;;;;;19.67;70.37;101075.41;5081392;28;20527;-81
2021/07/17 00:25:00;;;;;;;32.70;15.80;;;;;;;19.60;70.45;101079.00;5080253;28;20773;-81
2021/07/17 00:27:26;;;;;;;27.33;14.27;;;;;;;19.68;70.30;101077.09;5081015;28;20543;-83
2021/07/17 00:29:53;;;;;;;25.60;15.13;;;;;;;19.63;70.35;101087.63;5081769;28;20452;-81
2021/07/17 00:32:20;;;;;;;26.17;14.60;;;;;;;19.69;70.15;101095.06;5079295;28;20468;-81
2021/07/17 00:34:46;;;;;;;22.83;13.57;;;;;;;19.73;70.21;101087.41;5081192;28;20479;-83
2021/07/17 00:37:14;;;;;;;29.27;16.10;;;;;;;19.73;70.17;101084.69;5080254;28;20547;-82
2021/07/17 00:39:41;;;;;;;20.87;15.27;;;;;;;19.61;70.46;101091.56;5080167;28;20448;-82
2021/07/17 00:42:08;;;;;;;27.87;15.43;;;;;;;19.56;70.54;101086.66;5080824;28;20499;-82
2021/07/17 00:44:34;;;;;;;25.77;15.87;;;;;;;19.54;70.78;101084.13;5082083;28;20452;-81
2021/07/17 00:47:01;;;;;;;31.03;15.73;;;;;;;19.58;70.58;101087.31;5080085;28;21003;-82
2021/07/17 00:49:29;;;;;;;19.63;13.60;;;;;;;19.49;70.53;101078.38;5081079;28;20468;-82
2021/07/17 00:51:56;;;;;;;29.43;13.83;;;;;;;19.21;71.32;101086.19;5080573;28;20559;-81
2021/07/17 00:54:25;;;;;;;29.60;15.17;;;;;;;19.32;71.13;101082.22;5079966;28;21036;-81
2021/07/17 00:56:53;;;;;;;32.87;15.27;;;;;;;19.32;70.95;101093.94;5080891;28;20495;-81
2021/07/17 00:59:23;;;;;;;29.93;15.40;;;;;;;19.34;71.02;101082.91;5081751;28;20451;-83
2021/07/17 01:01:52;;;;;;;28.50;15.67;;;;;;;19.32;71.00;101088.50;5088060;28;20484;-83
2021/07/17 01:04:19;;;;;;;34.40;17.10;;;;;;;19.17;71.51;101099.25;5086548;28;20475;-83
2021/07/17 01:06:46;;;;;;;34.57;16.23;;;;;;;19.11;71.94;101089.13;5080111;28;20515;-84
2021/07/17 01:09:13;;;;;;;29.87;16.27;;;;;;;19.21;71.55;101090.78;5079118;28;20940;-84
2021/07/17 01:11:41;;;;;;;31.70;16.80;;;;;;;19.23;71.25;101092.25;5080859;28;20951;-85
2021/07/17 01:14:08;;;;;;;27.00;15.43;;;;;;;19.23;71.13;101083.28;5081126;28;20520;-85
2021/07/17 01:16:37;;;;;;;28.70;15.50;;;;;;;19.30;70.72;101082.41;5079402;28;20581;-84
2021/07/17 01:19:04;;;;;;;28.90;14.77;;;;;;;19.24;70.98;101085.84;5080925;28;20916;-84
2021/07/17 01:21:32;;;;;;;27.23;14.60;;;;;;;19.35;70.91;101084.59;5080524;28;20503;-84
2021/07/17 01:24:00;;;;;;;30.77;15.00;;;;;;;19.34;70.85;101082.91;5080478;28;20984;-84
2021/07/17 01:26:27;;;;;;;26.87;16.10;;;;;;;19.36;70.51;101080.88;5080658;28;20484;-84
2021/07/17 01:28:53;;;;;;;31.53;16.00;;;;;;;19.42;70.41;101080.13;5080340;28;20524;-83
2021/07/17 01:31:20;;;;;;;24.43;15.33;;;;;;;19.45;70.29;101087.09;5079734;28;20499;-83
2021/07/17 01:33:47;;;;;;;29.47;15.70;;;;;;;19.41;70.53;101083.88;5081064;28;20490;-83
2021/07/17 01:36:14;;;;;;;26.03;15.73;;;;;;;19.27;70.72;101084.63;5080002;28;20476;-83
2021/07/17 01:38:48;;;;;;;28.87;16.03;;;;;;;19.14;71.29;101082.50;5079881;28;21008;-83
2021/07/17 01:41:16;;;;;;;25.90;15.33;;;;;;;19.19;71.32;101082.81;5080698;28;20579;-82
2021/07/17 01:43:43;;;;;;;33.27;15.40;;;;;;;19.18;71.05;101086.53;5081264;28;20451;-83
2021/07/17 01:46:10;;;;;;;34.13;15.20;;;;;;;19.13;71.31;101081.66;5078713;28;20499;-83
2021/07/17 01:48:37;;;;;;;31.30;15.70;;;;;;;19.26;70.86;101081.06;5079624;28;20483;-83
2021/07/17 01:51:03;;;;;;;28.23;15.73;;;;;;;19.41;70.31;101083.88;5078478;28;20483;-82
2021/07/17 01:53:30;;;;;;;25.10;15.83;;;;;;;19.42;70.21;101085.56;5079531;28;20451;-83
2021/07/17 01:55:58;;;;;;;22.47;14.40;;;;;;;19.46;70.11;101078.78;5078611;28;20475;-83
2021/07/17 01:58:25;;;;;;;28.93;14.80;;;;;;;19.40;69.94;101078.63;5080821;28;20937;-83
2021/07/17 02:00:52;;;;;;;25.50;15.60;;;;;;;19.35;70.41;101081.88;5080601;28;21071;-82
2021/07/17 02:03:19;;;;;;;34.97;15.83;;;;;;;19.29;70.45;101077.19;5080822;28;20451;-83
2021/07/17 02:05:46;;;;;;;27.87;15.83;;;;;;;19.40;70.16;101076.75;5079527;28;21000;-83
2021/07/17 02:08:14;;;;;;;24.30;14.23;;;;;;;19.43;69.98;101065.56;5081126;28;20576;-83
2021/07/17 02:10:41;;;;;;;18.23;13.63;;;;;;;19.48;69.77;101068.59;5080755;28;20484;-83
2021/07/17 02:13:10;;;;;;;25.43;15.40;;;;;;;19.53;69.65;101065.34;5081184;28;20531;-82
2021/07/17 02:15:43;;;;;;;26.43;14.80;;;;;;;19.39;69.85;101066.97;5080670;28;20475;-83
2021/07/17 02:18:10;;;;;;;34.33;14.40;;;;;;;19.32;70.03;101074.09;5081519;28;20480;-81
2021/07/17 02:20:38;;;;;;;31.00;14.40;;;;;;;19.34;70.15;101072.06;5080351;28;20469;-82
2021/07/17 02:23:05;;;;;;;32.20;15.00;;;;;;;19.42;70.06;101071.16;5081184;28;20542;-83
2021/07/17 02:25:32;;;;;;;26.47;14.67;;;;;;;19.52;69.91;101064.47;5080510;28;20561;-82
2021/07/17 02:27:59;;;;;;;32.67;15.30;;;;;;;19.47;70.11;101074.19;5073544;28;20479;-81
2021/07/17 02:30:28;;;;;;;29.93;14.90;;;;;;;19.61;69.58;101065.28;5081554;28;20720;-83
2021/07/17 02:32:55;;;;;;;25.40;15.90;;;;;;;19.50;69.77;101063.00;5084429;28;20476;-84
2021/07/17 02:35:22;;;;;;;24.23;16.20;;;;;;;19.34;70.45;101067.47;5084392;28;20499;-83
2021/07/17 02:37:48;;;;;;;23.73;15.00;;;;;;;19.36;70.50;101061.88;5084223;28;20519;-84
2021/07/17 02:40:15;;;;;;;26.47;14.77;;;;;;;19.41;70.25;101070.31;5083994;28;20443;-83
2021/07/17 02:42:42;;;;;;;30.07;15.20;;;;;;;19.35;70.18;101060.19;5084665;28;20490;-84
2021/07/17 02:45:11;;;;;;;28.73;15.70;;;;;;;19.32;70.27;101064.09;5083692;28;20509;-82
2021/07/17 02:47:39;;;;;;;26.17;14.93;;;;;;;19.43;70.20;101073.69;5085031;28;20498;-83
2021/07/17 02:50:07;;;;;;;30.77;14.83;;;;;;;19.36;70.20;101070.84;5091991;28;20420;-83
2021/07/17 02:52:34;;;;;;;28.33;15.40;;;;;;;19.16;71.08;101072.31;5090607;28;20456;-83
2021/07/17 02:55:01;;;;;;;27.87;15.40;;;;;;;19.33;70.64;101067.66;5084455;28;21025;-84
2021/07/17 02:57:27;;;;;;;25.20;14.07;;;;;;;19.40;70.28;101074.06;5083454;28;20534;-82
2021/07/17 02:59:54;;;;;;;25.03;14.53;;;;;;;19.41;70.35;101058.63;5065970;28;20456;-83
2021/07/17 03:02:21;;;;;;;23.73;14.87;;;;;;;19.61;69.92;101056.28;5083171;28;20500;-83
2021/07/17 03:04:50;;;;;;;23.33;14.03;;;;;;;19.57;70.07;101053.94;5084063;28;20471;-83
2021/07/17 03:07:17;;;;;;;31.87;15.70;;;;;;;19.54;69.67;101056.16;5083048;28;20480;-82
2021/07/17 03:09:43;;;;;;;30.40;14.33;;;;;;;19.36;70.50;101059.16;5083787;28;20460;-83
2021/07/17 03:12:10;;;;;;;27.00;15.13;;;;;;;19.27;70.78;101061.09;5083573;28;20484;-83
2021/07/17 03:14:37;;;;;;;27.87;14.87;;;;;;;19.29;70.79;101060.91;5084713;28;20464;-83
2021/07/17 03:17:04;;;;;;;26.77;14.90;;;;;;;19.10;71.19;101063.03;5082991;28;20966;-83
2021/07/17 03:19:31;;;;;;;26.40;15.10;;;;;;;18.95;71.68;101052.06;5083394;28;20455;-83
2021/07/17 03:21:59;;;;;;;22.43;13.70;;;;;;;19.10;71.31;101057.59;5083398;28;20472;-82
2021/07/17 03:24:26;;;;;;;22.77;12.90;;;;;;;18.95;71.80;101048.53;5084249;28;20767;-83
2021/07/17 03:26:52;;;;;;;27.73;13.40;;;;;;;18.97;71.77;101054.59;5086565;28;20550;-83
2021/07/17 03:29:19;;;;;;;22.33;13.17;;;;;;;19.06;71.50;101060.84;5085210;28;20465;-83
2021/07/17 03:31:46;;;;;;;25.73;12.83;;;;;;;19.07;71.33;101051.69;5083135;28;20507;-82
2021/07/17 03:34:12;;;;;;;22.57;12.27;;;;;;;19.01;71.54;101050.53;5084355;28;20528;-82
2021/07/17 03:36:39;;;;;;;22.13;11.37;;;;;;;18.94;71.66;101052.25;5081431;28;20467;-83
2021/07/17 03:39:07;;;;;;;30.37;13.80;;;;;;;18.98;71.34;101054.44;5083494;28;21058;-83
2021/07/17 03:41:36;;;;;;;22.90;12.57;;;;;;;18.87;72.00;101051.25;5082234;28;21069;-82
2021/07/17 03:44:03;;;;;;;23.70;12.73;;;;;;;18.96;71.65;101052.94;5083347;28;20452;-83
2021/07/17 03:46:30;;;;;;;27.67;12.43;;;;;;;19.04;71.27;101052.03;5030125;28;20499;-82
2021/07/17 03:48:57;;;;;;;24.00;12.73;;;;;;;18.96;71.68;101050.22;5082699;28;20479;-82
2021/07/17 03:51:25;;;;;;;23.63;11.80;;;;;;;19.02;71.79;101057.63;5082323;28;20535;-82
2021/07/17 03:53:51;;;;;;;32.77;14.80;;;;;;;19.22;71.09;101051.78;5079872;28;20539;-82
2021/07/17 03:56:19;;;;;;;18.37;13.33;;;;;;;19.24;70.93;101047.03;5082537;28;20566;-79
2021/07/17 03:58:46;;;;;;;23.10;11.37;;;;;;;19.36;70.62;101040.19;5082468;28;20464;-82
2021/07/17 04:01:13;;;;;;;23.60;12.20;;;;;;;19.48;70.15;101052.31;5082172;28;20518;-83
2021/07/17 04:03:40;;;;;;;28.87;12.87;;;;;;;19.31;70.75;101048.00;5082955;28;20516;-82
2021/07/17 04:06:07;;;;;;;28.40;13.83;;;;;;;19.31;71.03;101048.84;5081764;28;20488;-83
2021/07/17 04:08:33;;;;;;;20.10;11.73;;;;;;;19.35;70.84;101033.91;5082548;28;20487;-82
2021/07/17 04:11:00;;;;;;;30.50;12.80;;;;;;;19.31;70.98;101050.72;5082306;28;20480;-85
2021/07/17 04:13:28;;;;;;;22.80;13.30;;;;;;;19.38;70.64;101043.56;5082824;28;20451;-84
2021/07/17 04:15:55;;;;;;;27.40;12.80;;;;;;;19.32;70.67;101049.69;5082197;28;20559;-83
2021/07/17 04:18:22;;;;;;;28.23;12.97;;;;;;;19.37;70.76;101056.28;5082976;28;20643;-82
2021/07/17 04:20:48;;;;;;;25.43;12.97;;;;;;;19.50;70.23;101047.53;5081669;28;20543;-84
2021/07/17 04:23:15;;;;;;;25.60;12.27;;;;;;;19.50;70.36;101052.97;5081598;28;20456;-80
2021/07/17 04:25:42;;;;;;;26.10;11.40;;;;;;;19.29;70.88;101056.31;5082114;28;20506;-83
2021/07/17 04:28:08;;;;;;;26.60;13.53;;;;;;;19.18;71.43;101064.84;5075318;28;20555;-83
2021/07/17 04:30:37;;;;;;;19.57;12.70;;;;;;;19.25;71.24;101060.44;5082307;28;20547;-82
2021/07/17 04:33:04;;;;;;;29.90;14.93;;;;;;;19.26;71.17;101062.09;5081985;28;20871;-82
2021/07/17 04:35:30;;;;;;;34.43;13.43;;;;;;;19.13;71.52;101068.09;5081483;28;20498;-82
2021/07/17 04:37:57;;;;;;;26.50;13.17;;;;;;;19.29;71.30;101060.91;5087485;28;20475;-81
2021/07/17 04:40:24;;;;;;;29.70;12.83;;;;;;;19.36;70.84;101067.31;5090945;28;20443;-82
2021/07/17 04:42:51;;;;;;;23.70;12.40;;;;;;;19.60;70.08;101062.72;5082315;28;20463;-82
2021/07/17 04:45:17;;;;;;;30.33;12.60;;;;;;;19.56;70.09;101059.53;5080479;28;20459;-83
2021/07/17 04:47:45;;;;;;;29.90;12.50;;;;;;;19.46;70.53;101064.34;5082004;28;20499;-82
2021/07/17 04:50:13;;;;;;;27.17;12.77;;;;;;;19.57;70.20;101053.94;5080128;28;20449;-82
2021/07/17 04:52:40;;;;;;;32.53;12.50;;;;;;;19.56;70.28;101057.69;5081175;28;20475;-83
2021/07/17 04:55:08;;;;;;;25.50;12.10;;;;;;;19.62;70.09;101060.72;5081091;28;20468;-82
2021/07/17 04:57:34;;;;;;;24.33;12.63;;;;;;;19.08;71.53;101062.38;5082388;28;20471;-83
2021/07/17 05:00:01;;;;;;;34.00;13.30;;;;;;;19.17;71.95;101057.75;5083091;28;20444;-83
2021/07/17 05:02:28;;;;;;;24.80;13.07;;;;;;;19.26;71.38;101061.25;5079243;28;20484;-82
2021/07/17 05:04:57;;;;;;;27.07;11.80;;;;;;;19.34;71.24;101053.09;5082546;28;20451;-82
2021/07/17 05:07:24;;;;;;;24.07;12.00;;;;;;;19.26;71.50;101063.97;5079892;28;20915;-82
2021/07/17 05:09:50;;;;;;;30.50;12.47;;;;;;;19.24;71.48;101066.03;5081410;28;20482;-82
2021/07/17 05:12:17;;;;;;;20.60;10.73;;;;;;;19.26;71.19;101070.22;5081188;28;20583;-82
2021/07/17 05:14:44;;;;;;;34.50;11.60;;;;;;;19.26;71.44;101072.94;5081440;28;20470;-82
2021/07/17 05:17:11;;;;;;;27.07;12.57;;;;;;;19.35;70.94;101060.19;5081600;28;20486;-83
2021/07/17 05:19:37;;;;;;;26.00;12.67;;;;;;;19.25;71.36;101075.81;5080911;28;20483;-82
2021/07/17 05:22:06;;;;;;;21.07;11.80;;;;;;;19.54;70.35;101054.28;5081246;28;20566;-81
2021/07/17 05:24:32;;;;;;;23.60;11.80;;;;;;;19.70;69.79;101057.91;5082326;28;20559;-82
2021/07/17 05:26:59;;;;;;;24.87;10.90;;;;;;;19.70;69.58;101063.34;5082290;28;20512;-84
2021/07/17 05:29:26;;;;;;;27.57;10.80;;;;;;;19.66;69.72;101067.44;5082469;28;20543;-82
2021/07/17 05:31:52;;;;;;;27.97;13.13;;;;;;;19.89;69.22;101065.63;5080373;28;21073;-84
2021/07/17 05:34:19;;;;;;;25.17;10.20;;;;;;;19.94;68.86;101063.19;5081952;28;20455;-82
2021/07/17 05:36:46;;;;;;;27.47;11.53;;;;;;;20.01;68.74;101065.19;5080473;28;21067;-81
2021/07/17 05:39:14;;;;;;;28.40;11.27;;;;;;;20.12;68.44;101084.59;5081979;28;20953;-82
2021/07/17 05:41:41;;;;;;;27.23;10.73;;;;;;;20.25;68.02;101078.53;5080928;28;20480;-83
2021/07/17 05:44:08;;;;;;;22.50;10.87;;;;;;;20.06;68.22;101076.34;5082072;28;20494;-82
2021/07/17 05:46:34;;;;;;;21.07;10.13;;;;;;;20.29;68.07;101073.56;5081557;28;20502;-82
2021/07/17 05:49:01;;;;;;;26.17;10.20;;;;;;;20.14;68.68;101084.41;5081452;28;20447;-82
2021/07/17 05:51:28;;;;;;;24.50;10.43;;;;;;;20.24;68.16;101078.72;5080795;28;20483;-83
2021/07/17 05:53:54;;;;;;;21.30;9.43;;;;;;;20.29;68.10;101088.00;5082361;28;20534;-82
2021/07/17 05:56:22;;;;;;;24.60;9.60;;;;;;;20.25;68.15;101083.13;5081559;28;20522;-81
2021/07/17 05:58:49;;;;;;;22.50;11.57;;;;;;;20.35;68.00;101085.59;5081651;28;20476;-83
2021/07/17 06:01:16;;;;;;;24.10;10.03;;;;;;;20.19;68.24;101094.69;5080917;28;21023;-84
2021/07/17 06:03:43;;;;;;;20.70;9.20;;;;;;;20.12;68.67;101086.47;5073554;28;20456;-81
2021/07/17 06:06:10;;;;;;;20.47;9.13;;;;;;;19.91;68.90;101087.13;5082363;28;20480;-81
2021/07/17 06:08:37;;;;;;;17.50;9.10;;;;;;;19.95;68.77;101091.19;5084957;28;20518;-84
2021/07/17 06:11:03;;;;;;;18.13;9.77;;;;;;;19.74;69.38;101086.44;5084738;28;20488;-84
2021/07/17 06:13:31;;;;;;;21.60;9.77;;;;;;;19.78;69.14;101090.44;5084758;28;20518;-80
2021/07/17 06:15:58;;;;;;;26.70;9.30;;;;;;;19.69;69.56;101099.66;5084521;28;20543;-81
2021/07/17 06:18:25;;;;;;;22.20;10.30;;;;;;;19.65;69.61;101095.59;5085320;28;20487;-81
2021/07/17 06:20:51;;;;;;;22.53;9.10;;;;;;;19.79;69.52;101100.28;5083952;28;20539;-81
2021/07/17 06:23:18;;;;;;;20.53;8.47;;;;;;;20.13;68.20;101096.28;5085458;28;20455;-81
2021/07/17 06:25:45;;;;;;;14.20;9.60;;;;;;;20.23;67.92;101094.16;5085913;28;20502;-79
2021/07/17 06:28:11;;;;;;;13.97;7.73;;;;;;;20.58;66.60;101094.50;5096189;28;20516;-83
2021/07/17 06:30:39;;;;;;;22.13;9.07;;;;;;;21.69;63.29;101094.50;5084613;28;20546;-82
2021/07/17 06:33:06;;;;;;;14.87;7.03;;;;;;;23.34;58.10;101099.75;5085147;28;20547;-82
2021/07/17 06:35:33;;;;;;;14.03;7.33;;;;;;;24.20;54.92;101091.72;5084317;28;20892;-82
2021/07/17 06:37:59;;;;;;;17.70;7.63;;;;;;;24.51;53.64;101098.44;5079788;28;20491;-82
2021/07/17 06:40:26;;;;;;;13.53;6.27;;;;;;;23.99;54.47;101094.66;5070785;28;20551;-83
2021/07/17 06:42:53;;;;;;;14.50;6.87;;;;;;;24.54;52.77;101094.47;5083339;28;20458;-82
2021/07/17 06:45:20;;;;;;;13.00;6.30;;;;;;;26.49;47.97;101101.47;5082372;28;20456;-82
2021/07/17 06:47:49;;;;;;;15.50;5.40;;;;;;;29.31;41.79;101102.56;5080387;28;20479;-82
2021/07/17 06:50:17;;;;;;;19.30;5.20;;;;;;;29.21;41.41;101107.88;5069371;28;20520;-83
2021/07/17 06:52:44;;;;;;;12.13;4.93;;;;;;;30.62;38.81;101116.47;5077249;28;20448;-82
2021/07/17 06:55:12;;;;;;;11.63;5.10;;;;;;;30.36;37.81;101116.91;5081081;28;20443;-82
2021/07/17 06:57:41;;;;;;;14.47;4.83;;;;;;;28.83;40.85;101114.72;5078790;28;20471;-82
2021/07/17 07:00:09;;;;;;;10.43;4.20;;;;;;;26.85;45.11;101117.16;5083396;28;20963;-82
2021/07/17 07:02:35;;;;;;;14.70;5.27;;;;;;;25.74;47.27;101111.31;5074354;28;20502;-82
2021/07/17 07:05:04;;;;;;;10.40;4.47;;;;;;;26.37;47.10;101114.22;5083194;28;20483;-82
2021/07/17 07:07:31;;;;;;;12.63;4.90;;;;;;;25.96;47.46;101121.94;5082644;28;20490;-82
2021/07/17 07:09:57;;;;;;;13.43;4.67;;;;;;;24.86;50.48;101117.34;5083509;28;20563;-82
2021/07/17 07:12:24;;;;;;;13.43;4.13;;;;;;;24.28;51.49;101118.00;5082326;28;20503;-81
2021/07/17 07:14:51;;;;;;;16.00;4.63;;;;;;;25.13;50.79;101120.00;5075656;28;20879;-82
2021/07/17 07:17:17;;;;;;;10.43;4.63;;;;;;;26.27;47.45;101117.50;5082011;28;21049;-82
2021/07/17 07:19:44;;;;;;;10.00;4.63;;;;;;;25.76;48.63;101119.28;5082773;28;20480;-82
2021/07/17 07:22:12;;;;;;;12.07;4.10;;;;;;;26.36;47.23;101118.06;5082722;28;20496;-83
2021/07/17 07:24:39;;;;;;;13.53;4.50;;;;;;;25.45;49.36;101120.09;5083241;28;20464;-83
2021/07/17 07:27:05;;;;;;;8.87;4.63;;;;;;;25.45;49.60;101125.56;5078604;28;20503;-82
2021/07/17 07:29:32;;;;;;;8.60;4.07;;;;;;;24.55;51.17;101126.22;5076320;28;20921;-83
2021/07/17 07:32:00;;;;;;;14.00;4.93;;;;;;;24.04;52.86;101131.25;5063991;28;20556;-82
2021/07/17 07:34:26;;;;;;;9.70;4.37;;;;;;;23.64;53.85;101133.84;5082845;28;20455;-81
2021/07/17 07:36:53;;;;;;;13.57;4.77;;;;;;;23.57;54.05;101124.78;5080179;28;21028;-82
2021/07/17 07:39:21;;;;;;;10.03;4.47;;;;;;;23.26;55.80;101126.16;5068829;28;20463;-82
2021/07/17 07:41:48;;;;;;;14.87;4.43;;;;;;;22.97;55.58;101124.50;5082541;28;20495;-85
2021/07/17 07:44:14;;;;;;;10.40;4.77;;;;;;;22.88;55.88;101128.41;5083046;28;20456;-84
2021/07/17 07:46:41;;;;;;;10.60;4.50;;;;;;;23.25;55.15;101132.66;5065812;28;20496;-87
2021/07/17 07:49:09;;;;;;;8.90;4.60;;;;;;;23.55;54.84;101139.69;5078675;28;20513;-86
2021/07/17 07:51:35;;;;;;;9.60;4.50;;;;;;;23.62;54.18;101143.28;5069688;28;20472;-87
2021/07/17 07:54:02;;;;;;;9.67;4.87;;;;;;;23.71;53.79;101136.56;5082989;28;20483;-83
2021/07/17 07:56:30;;;;;;;11.93;4.87;;;;;;;23.74;53.91;101132.59;5082293;28;20531;-81
2021/07/17 07:58:57;;;;;;;10.53;4.70;;;;;;;24.13;52.66;101139.22;5082346;28;20478;-82
2021/07/17 08:01:23;;;;;;;7.00;4.00;;;;;;;24.57;51.27;101126.84;5075779;28;21001;-81
2021/07/17 08:03:50;;;;;;;10.63;4.70;;;;;;;24.49;51.84;101129.78;5062161;28;20883;-82
2021/07/17 08:06:17;;;;;;;12.43;4.40;;;;;;;26.79;46.67;101130.97;5075105;28;21018;-81
2021/07/17 08:08:43;;;;;;;13.67;4.80;;;;;;;28.00;43.78;101128.41;5067255;28;20487;-82
2021/07/17 08:11:10;;;;;;;13.70;5.40;;;;;;;29.00;41.21;101131.34;5065801;28;20482;-85
2021/07/17 08:13:38;;;;;;;11.43;4.93;;;;;;;30.95;37.60;101124.69;5085407;28;20467;-83
2021/07/17 08:16:05;;;;;;;12.93;4.67;;;;;;;29.58;39.64;101135.03;5089997;28;20475;-86
2021/07/17 08:18:32;;;;;;;11.53;4.87;;;;;;;28.81;42.14;101128.72;5081709;28;20762;-84
2021/07/17 08:20:58;;;;;;;12.70;4.53;;;;;;;29.58;40.80;101130.38;5081332;28;20531;-85
2021/07/17 08:23:25;;;;;;;14.57;5.27;;;;;;;28.79;42.06;101127.31;5081659;28;20519;-82
2021/07/17 08:25:52;;;;;;;11.53;4.53;;;;;;;28.48;43.65;101129.31;5081441;28;20476;-82
2021/07/17 08:28:18;;;;;;;9.00;4.90;;;;;;;27.82;45.24;101134.78;5082121;28;20896;-85
2021/07/17 08:30:46;;;;;;;7.80;5.17;;;;;;;26.33;48.29;101124.81;5070292;28;20479;-80
2021/07/17 08:33:13;;;;;;;10.93;5.70;;;;;;;26.38;48.70;101122.22;5062282;28;20955;-85
2021/07/17 08:35:40;;;;;;;9.27;5.30;;;;;;;26.90;46.87;101123.88;5062016;28;20536;-84
2021/07/17 08:38:07;;;;;;;8.77;5.20;;;;;;;29.00;42.26;101121.16;5062064;28;20483;-83
2021/07/17 08:40:34;;;;;;;10.37;4.30;;;;;;;30.33;39.33;101130.31;5061599;28;20981;-86
2021/07/17 08:43:00;;;;;;;9.70;4.53;;;;;;;31.38;37.84;101133.22;5078327;28;20515;-83
2021/07/17 08:45:27;;;;;;;10.33;5.23;;;;;;;30.55;39.03;101138.72;5081526;28;20483;-86
2021/07/17 08:47:57;;;;;;;9.87;4.80;;;;;;;29.77;41.32;101143.97;5081676;28;20476;-86
2021/07/17 08:50:25;;;;;;;6.67;4.67;;;;;;;27.77;44.02;101145.63;5081166;28;20926;-84
2021/07/17 08:52:52;;;;;;;9.10;5.43;;;;;;;27.87;44.84;101150.56;5081052;28;20456;-84
2021/07/17 08:55:19;;;;;;;11.70;5.20;;;;;;;27.38;46.41;101148.69;5081829;28;20534;-86
2021/07/17 08:57:46;;;;;;;8.73;5.60;;;;;;;27.71;44.92;101147.41;5082010;28;20587;-86
2021/07/17 09:00:15;;;;;;;9.30;5.27;;;;;;;27.73;45.27;101144.44;5080937;28;20531;-83
2021/07/17 09:02:43;;;;;;;10.43;5.63;;;;;;;26.95;47.01;101146.81;5081220;28;20515;-86
2021/07/17 09:05:14;;;;;;;9.77;5.73;;;;;;;27.95;45.11;101144.75;5081022;28;20436;-83
2021/07/17 09:07:41;;;;;;;10.47;5.03;;;;;;;29.39;41.35;101138.00;5081202;28;20515;-83
2021/07/17 09:10:34;;;;;;;14.97;5.57;;;;;;;30.08;40.03;101144.53;5081184;28;20679;-85
2021/07/17 09:13:12;;;;;;;10.00;5.17;;;;;;;29.36;41.41;101145.91;5077354;28;20440;-86
2021/07/17 09:15:41;;;;;;;14.53;4.83;;;;;;;29.26;41.54;101132.75;5081282;28;20471;-85
2021/07/17 09:18:08;;;;;;;9.17;4.60;;;;;;;29.93;40.44;101139.56;5081795;28;21004;-83
2021/07/17 09:20:37;;;;;;;12.13;4.70;;;;;;;29.25;40.87;101140.19;5080598;28;20469;-86
2021/07/17 09:23:06;;;;;;;12.27;4.23;;;;;;;29.87;40.45;101135.88;5081002;28;20872;-84
2021/07/17 09:25:38;;;;;;;9.47;4.43;;;;;;;30.09;39.73;101138.78;5081360;28;20514;-82
2021/07/17 09:28:18;;;;;;;12.10;3.60;;;;;;;31.37;38.22;101139.88;5069829;28;20512;-84
2021/07/17 09:30:45;;;;;;;11.10;4.43;;;;;;;32.54;36.79;101139.34;5072716;28;20564;-84
2021/07/17 09:33:12;;;;;;;8.40;3.77;;;;;;;33.11;34.16;101136.94;5080539;28;20471;-85
2021/07/17 09:35:41;;;;;;;7.50;4.00;;;;;;;32.16;35.62;101143.22;5080622;28;20470;-85
2021/07/17 09:38:09;;;;;;;7.93;3.80;;;;;;;31.46;37.69;101134.72;5079328;28;20543;-85
2021/07/17 09:40:43;;;;;;;11.90;4.50;;;;;;;31.92;37.60;101132.44;5082864;28;20515;-85
2021/07/17 09:43:10;;;;;;;9.30;4.43;;;;;;;33.33;34.64;101134.84;5084145;28;21029;-85
2021/07/17 09:45:38;;;;;;;9.13;3.27;;;;;;;31.77;36.22;101133.16;5083268;28;20550;-82
2021/07/17 09:48:23;;;;;;;5.30;3.63;;;;;;;31.56;36.84;101132.09;5084005;28;20543;-84
2021/07/17 09:50:52;;;;;;;7.40;3.73;;;;;;;32.18;36.60;101135.47;5082409;28;20543;-83
2021/07/17 09:53:42;;;;;;;9.33;4.27;;;;;;;33.58;33.90;101128.53;5082531;28;20463;-84
2021/07/17 09:56:10;;;;;;;8.87;4.03;;;;;;;31.50;37.71;101127.59;5083944;28;20471;-82
2021/07/17 09:58:38;;;;;;;12.53;4.97;;;;;;;32.10;37.72;101134.03;5085027;28;20452;-83
2021/07/17 10:01:26;;;;;;;9.63;3.80;;;;;;;32.73;35.82;101130.66;5085934;28;20475;-82
2021/07/17 10:03:59;;;;;;;5.10;3.17;;;;;;;32.97;34.90;101125.53;5091759;28;20479;-86
2021/07/17 10:06:40;;;;;;;7.60;3.20;;;;;;;33.88;32.75;101123.34;5083685;28;20480;-84
2021/07/17 10:09:08;;;;;;;13.20;3.90;;;;;;;33.22;34.49;101122.03;5082747;28;20479;-84
2021/07/17 10:11:35;;;;;;;8.30;3.63;;;;;;;32.77;35.56;101120.69;5083010;28;20563;-85
2021/07/17 10:14:16;;;;;;;5.80;2.80;;;;;;;31.80;37.28;101120.72;5083641;28;20979;-85
2021/07/17 10:16:43;;;;;;;6.07;3.17;;;;;;;32.19;35.75;101132.44;5082553;28;20474;-84
2021/07/17 10:19:10;;;;;;;7.57;3.37;;;;;;;32.39;34.67;101128.16;5083175;28;20453;-84
2021/07/17 10:21:38;;;;;;;8.87;2.90;;;;;;;31.65;36.30;101121.41;5083310;28;20570;-82
2021/07/17 10:24:05;;;;;;;9.57;3.20;;;;;;;32.48;34.14;101123.78;5082506;28;20971;-84
2021/07/17 10:26:32;;;;;;;7.80;3.70;;;;;;;31.92;35.88;101132.44;5080869;28;20514;-84
2021/07/17 10:29:04;;;;;;;5.97;3.00;;;;;;;32.09;35.05;101126.81;5083463;28;20492;-84
2021/07/17 10:31:31;;;;;;;8.37;3.70;;;;;;;32.14;35.88;101123.28;5082845;28;21012;-84
2021/07/17 10:33:58;;;;;;;9.63;3.20;;;;;;;31.68;36.73;101118.09;5082103;28;20517;-84
2021/07/17 10:36:25;;;;;;;6.23;3.03;;;;;;;31.59;36.97;101122.44;5083452;28;20540;-83
2021/07/17 10:38:57;;;;;;;4.70;3.30;;;;;;;31.83;35.52;101118.25;5082959;28;20527;-85
2021/07/17 10:41:25;;;;;;;5.30;3.07;;;;;;;31.41;36.77;101123.59;5081577;28;20472;-85
2021/07/17 10:43:54;;;;;;;8.90;3.77;;;;;;;30.90;37.85;101120.97;5083085;28;20480;-85
2021/07/17 10:46:29;;;;;;;7.70;4.50;;;;;;;30.97;37.55;101116.13;5082656;28;21373;-85
2021/07/17 10:48:56;;;;;;;8.30;3.80;;;;;;;31.93;35.78;101120.28;5081613;28;20574;-85
2021/07/17 10:51:33;;;;;;;9.13;3.23;;;;;;;30.87;37.39;101116.00;5081430;28;20519;-85
2021/07/17 10:54:03;;;;;;;7.30;3.40;;;;;;;30.81;38.07;101109.53;5082609;28;20451;-84
2021/07/17 10:56:50;;;;;;;7.00;3.33;;;;;;;31.14;37.75;101114.19;5081768;28;20562;-83
2021/07/17 10:59:40;;;;;;;7.53;3.93;;;;;;;30.96;37.17;101117.25;5082486;28;20444;-82
2021/07/17 11:02:07;;;;;;;11.40;4.43;;;;;;;30.05;39.86;101115.56;5082185;28;20464;-86
2021/07/17 11:04:37;;;;;;;8.50;3.73;;;;;;;30.69;39.72;101120.69;5080449;28;20448;-85
2021/07/17 11:07:32;;;;;;;9.17;3.93;;;;;;;32.12;37.10;101126.31;5082111;28;20483;-83
2021/07/17 11:10:01;;;;;;;8.57;3.60;;;;;;;31.81;36.91;101125.16;5082209;28;20488;-84
2021/07/17 11:12:29;;;;;;;8.20;3.40;;;;;;;31.33;37.36;101122.94;5081590;28;20498;-84
2021/07/17 11:14:57;;;;;;;7.63;3.10;;;;;;;31.61;35.77;101118.31;5083389;28;20970;-81
2021/07/17 11:17:42;;;;;;;9.07;2.80;;;;;;;32.27;35.86;101118.13;5082364;28;20555;-81